Catherine Desgagnes — VOWN — position and weather

sailwx.info

Track history (hours):
 
Tides and Currents Weather Stations Pressure Air Temp Water Temp Dewpoint Dewpoint Depression Visibility Wind Speed Wind Dir Waves Ship Positions

Catherine Desgagnes

Last reported at 2014-Dec-31 11:26 UTC. Time now 2015-Jan-30 06:26 UTC.
Position N 47°35' W 052°57'.
Warning: this ship's position is 29 days out of date.

Length 125 m; draft 7.7 m.

Type: Ship. MMSI: 316001203.

Date/timePositionNaut miles runAvg speedWind from/ knotsBaromVisibWave heightAir tempDewpointWater temp
2014-Dec-31 11:26N 47°35' W 052°57'15 3.7
2014-Dec-31 07:30N 47°32' W 052°35'1110.4
2014-Dec-31 06:24N 47°21' W 052°39'  
2014-Dec-28 05:28N 46°27' W 072°16'1314.0
2014-Dec-28 04:33N 46°21' W 072°31'1211.4
2014-Dec-28 03:32N 46°14' W 072°46'5 0.1
2014-Dec-26 06:33N 46°16' W 072°39'1010.0
2014-Dec-26 05:33N 46°23' W 072°28'1111.0
2014-Dec-26 04:34N 46°28' W 072°15'  
2014-Dec-23 08:07N 47°14' W 052°36'813.7
2014-Dec-23 07:32N 47°22' W 052°35'1414.1
2014-Dec-23 06:33N 47°36' W 052°35'  
Track history (hours):
 
Tides and Currents Weather Stations Pressure Air Temp Water Temp Dewpoint Dewpoint Depression Visibility Wind Speed Wind Dir Waves Ship Positions

Catherine Desgagnes

Last reported at 2014-Dec-31 11:26 UTC. Time now 2015-Jan-30 06:26 UTC.
Position N 47°35' W 052°57'.
Warning: this ship's position is 29 days out of date.

Length 125 m; draft 7.7 m.

Type: Ship. MMSI: 316001203.

Date/timePositionNaut miles runAvg speedWind from/ knotsBaromVisibWave heightAir tempDewpointWater temp
2014-Dec-31 11:26N 47°35' W 052°57'15 3.7
2014-Dec-31 07:30N 47°32' W 052°35'1110.4
2014-Dec-31 06:24N 47°21' W 052°39'  
2014-Dec-28 05:28N 46°27' W 072°16'1314.0
2014-Dec-28 04:33N 46°21' W 072°31'1211.4
2014-Dec-28 03:32N 46°14' W 072°46'5 0.1
2014-Dec-26 06:33N 46°16' W 072°39'1010.0
2014-Dec-26 05:33N 46°23' W 072°28'1111.0
2014-Dec-26 04:34N 46°28' W 072°15'  
2014-Dec-23 08:07N 47°14' W 052°36'813.7
2014-Dec-23 07:32N 47°22' W 052°35'1414.1
2014-Dec-23 06:33N 47°36' W 052°35'  

Dump ship's entire track history